Time;durP1;ratioP1;P1;durP2;ratioP2;P2;SDS_P1;SDS_P2;PMS_P1;PMS_P2;Temp;Humidity;BMP_temperature;BMP_pressure;BME280_temperature;BME280_humidity;BME280_pressure;Samples;Min_cycle;Max_cycle;Signal;HPM_P1;HPM_P2
2022/01/30 00:01:44;;;;;;;30.50;5.67;;;;;;;;;;5031137;28;20182;-69
2022/01/30 00:04:09;;;;;;;20.97;4.67;;;;;;;;;;5029397;28;20360;-69
2022/01/30 00:06:34;;;;;;;20.83;4.70;;;;;;;;;;5028689;28;20224;-69
2022/01/30 00:09:00;;;;;;;25.30;5.17;;;;;;;;;;5026899;28;20171;-69
2022/01/30 00:11:30;;;;;;;21.63;5.67;;;;;;;;;;5030422;28;20186;-69
2022/01/30 00:13:56;;;;;;;24.17;6.07;;;;;;;;;;5031679;28;20559;-69
2022/01/30 00:16:23;;;;;;;31.00;5.60;;;;;;;;;;5030023;28;20181;-69
2022/01/30 00:18:58;;;;;;;18.20;4.60;;;;;;;;;;5031152;28;20710;-69
2022/01/30 00:24:20;;;;;;;27.60;4.27;;;;;;;;;;5030952;28;20210;-69
2022/01/30 00:26:40;;;;;;;26.23;5.23;;;;;;;;;;5025167;28;20236;-70
2022/01/30 00:29:05;;;;;;;20.70;4.67;;;;;;;;;;5010168;28;20182;-69
2022/01/30 00:31:32;;;;;;;19.37;6.30;;;;;;;;;;5029437;28;20228;-69
2022/01/30 00:33:59;;;;;;;25.97;5.90;;;;;;;;;;5010133;28;20282;-69
2022/01/30 00:36:24;;;;;;;19.53;4.83;;;;;;;;;;5030623;28;20182;-69
2022/01/30 00:38:49;;;;;;;31.67;5.50;;;;;;;;;;5025810;28;20174;-69
2022/01/30 00:41:14;;;;;;;31.23;5.07;;;;;;;;;;5030536;28;20265;-69
2022/01/30 00:43:40;;;;;;;17.80;4.13;;;;;;;;;;5026641;28;20209;-69
2022/01/30 00:46:05;;;;;;;17.20;3.90;;;;;;;;;;5029300;28;20263;-69
2022/01/30 00:48:30;;;;;;;23.03;4.30;;;;;;;;;;5026927;28;20257;-69
2022/01/30 00:50:55;;;;;;;25.47;5.40;;;;;;;;;;5026729;28;20832;-69
2022/01/30 00:53:21;;;;;;;18.83;4.27;;;;;;;;;;5028991;28;20222;-69
2022/01/30 00:55:46;;;;;;;24.20;5.93;;;;;;;;;;5012326;28;20182;-70
2022/01/30 00:58:12;;;;;;;21.73;4.27;;;;;;;;;;5028936;28;20178;-69
2022/01/30 01:00:37;;;;;;;21.20;6.77;;;;;;;;;;5028612;28;20340;-70
2022/01/30 01:03:03;;;;;;;25.43;5.10;;;;;;;;;;5030234;28;20685;-70
2022/01/30 01:05:29;;;;;;;17.37;4.00;;;;;;;;;;5030429;28;20224;-69
2022/01/30 01:07:57;;;;;;;31.00;6.00;;;;;;;;;;5015677;28;20182;-69
2022/01/30 01:23:39;;;;;;;25.57;5.27;;;;;;;;;;5032948;28;20221;-69
2022/01/30 01:26:04;;;;;;;25.07;5.40;;;;;;;;;;5032634;28;20695;-68
2022/01/30 01:28:29;;;;;;;18.63;4.97;;;;;;;;;;5032192;28;20178;-68
2022/01/30 01:30:54;;;;;;;19.87;4.47;;;;;;;;;;5032862;28;20213;-69
2022/01/30 01:33:21;;;;;;;19.40;3.87;;;;;;;;;;5032883;28;20216;-68
2022/01/30 01:35:46;;;;;;;15.93;3.87;;;;;;;;;;5032395;28;20189;-69
2022/01/30 01:38:14;;;;;;;21.83;5.77;;;;;;;;;;5031377;28;20649;-69
2022/01/30 01:40:40;;;;;;;19.73;4.60;;;;;;;;;;5030298;28;20193;-69
2022/01/30 01:43:05;;;;;;;24.57;5.30;;;;;;;;;;5031307;28;20198;-69
2022/01/30 01:45:35;;;;;;;23.90;4.20;;;;;;;;;;5031089;28;20575;-69
2022/01/30 01:48:07;;;;;;;21.57;5.70;;;;;;;;;;5032649;28;20365;-69
2022/01/30 01:50:39;;;;;;;19.30;4.37;;;;;;;;;;5029695;28;20178;-69
2022/01/30 01:53:08;;;;;;;20.30;4.23;;;;;;;;;;5031851;28;20209;-69
2022/01/30 01:55:35;;;;;;;27.67;5.13;;;;;;;;;;5014879;28;20214;-68
2022/01/30 01:58:00;;;;;;;19.53;4.10;;;;;;;;;;5030330;28;20197;-70
2022/01/30 02:00:25;;;;;;;16.60;3.70;;;;;;;;;;5029268;28;20183;-69
2022/01/30 02:02:50;;;;;;;17.80;3.37;;;;;;;;;;5033165;28;20217;-69
2022/01/30 02:05:16;;;;;;;27.37;5.20;;;;;;;;;;5015417;28;20202;-69
2022/01/30 02:10:10;;;;;;;23.33;4.50;;;;;;;;;;5031889;28;20186;-70
2022/01/30 02:12:46;;;;;;;24.50;4.40;;;;;;;;;;5031939;28;20234;-70
2022/01/30 02:26:17;;;;;;;18.50;4.27;;;;;;;;;;4948707;28;20216;-70
2022/01/30 02:28:42;;;;;;;16.47;3.70;;;;;;;;;;4998003;28;20183;-70
2022/01/30 02:31:11;;;;;;;18.93;5.53;;;;;;;;;;5032353;28;21230;-69
2022/01/30 02:33:39;;;;;;;17.43;3.20;;;;;;;;;;5031780;28;20248;-69
2022/01/30 02:36:04;;;;;;;20.13;5.23;;;;;;;;;;5012126;28;20182;-69
2022/01/30 02:38:29;;;;;;;20.60;3.83;;;;;;;;;;5013732;28;20178;-69
2022/01/30 02:40:56;;;;;;;15.67;4.27;;;;;;;;;;5029505;28;20535;-69
2022/01/30 02:43:28;;;;;;;20.70;4.73;;;;;;;;;;5030269;28;20252;-69
2022/01/30 02:48:53;;;;;;;23.87;5.17;;;;;;;;;;5028210;28;20651;-69
2022/01/30 02:51:21;;;;;;;15.03;3.23;;;;;;;;;;5032093;28;20340;-69
2022/01/30 02:53:55;;;;;;;13.33;2.80;;;;;;;;;;5031163;28;20206;-69
2022/01/30 02:56:21;;;;;;;14.13;3.47;;;;;;;;;;5012863;28;20178;-69
2022/01/30 02:58:46;;;;;;;20.20;3.67;;;;;;;;;;5030141;28;20193;-69
2022/01/30 03:01:11;;;;;;;10.70;2.50;;;;;;;;;;5030140;28;20201;-69
2022/01/30 03:03:36;;;;;;;15.00;2.10;;;;;;;;;;5030396;28;20253;-69
2022/01/30 03:06:02;;;;;;;12.03;4.03;;;;;;;;;;5029192;28;20206;-70
2022/01/30 03:08:27;;;;;;;6.63;1.90;;;;;;;;;;5013378;28;20178;-71
2022/01/30 03:10:52;;;;;;;14.07;2.90;;;;;;;;;;5030233;28;20724;-69
2022/01/30 03:13:17;;;;;;;13.27;2.30;;;;;;;;;;5031148;28;20251;-69
2022/01/30 03:15:42;;;;;;;8.60;1.93;;;;;;;;;;5029989;28;20194;-69
2022/01/30 03:18:08;;;;;;;10.20;3.37;;;;;;;;;;5029430;28;20191;-69
2022/01/30 03:20:33;;;;;;;13.03;2.17;;;;;;;;;;5029869;28;20237;-71
2022/01/30 03:23:01;;;;;;;11.13;2.13;;;;;;;;;;5026951;28;20202;-69
2022/01/30 03:25:26;;;;;;;15.67;2.93;;;;;;;;;;5028681;28;20209;-71
2022/01/30 03:27:53;;;;;;;7.70;1.80;;;;;;;;;;5025673;28;20174;-69
2022/01/30 03:30:25;;;;;;;8.50;3.97;;;;;;;;;;5026311;28;20324;-71
2022/01/30 03:32:51;;;;;;;9.67;2.20;;;;;;;;;;5029271;28;20202;-69
2022/01/30 03:35:16;;;;;;;9.10;2.10;;;;;;;;;;5010371;28;20193;-69
2022/01/30 03:37:41;;;;;;;12.67;3.57;;;;;;;;;;5012019;28;20232;-69
2022/01/30 03:40:07;;;;;;;9.80;2.10;;;;;;;;;;5025337;28;20561;-69
2022/01/30 03:42:32;;;;;;;11.63;2.40;;;;;;;;;;5026053;28;20194;-70
2022/01/30 03:44:57;;;;;;;13.97;2.43;;;;;;;;;;5027448;28;20198;-71
2022/01/30 03:47:24;;;;;;;14.13;2.10;;;;;;;;;;5030236;28;20178;-71
2022/01/30 03:49:50;;;;;;;14.27;2.40;;;;;;;;;;5024493;28;20182;-69
2022/01/30 03:52:16;;;;;;;16.10;2.60;;;;;;;;;;5029050;28;20248;-70
2022/01/30 03:54:41;;;;;;;15.50;2.47;;;;;;;;;;5030162;28;20182;-70
2022/01/30 03:57:06;;;;;;;17.37;2.90;;;;;;;;;;5030241;28;20186;-69
2022/01/30 03:59:32;;;;;;;12.00;2.70;;;;;;;;;;5030437;28;20671;-69
2022/01/30 04:01:57;;;;;;;10.73;2.00;;;;;;;;;;5030164;28;20269;-71
2022/01/30 04:04:22;;;;;;;18.20;3.93;;;;;;;;;;5029685;28;20201;-70
2022/01/30 04:06:48;;;;;;;12.83;2.53;;;;;;;;;;5030166;28;20210;-70
2022/01/30 04:09:14;;;;;;;10.60;2.70;;;;;;;;;;5012646;28;20221;-69
2022/01/30 04:11:39;;;;;;;10.97;2.20;;;;;;;;;;5027901;28;20210;-70
2022/01/30 04:14:04;;;;;;;8.47;2.50;;;;;;;;;;5028313;28;20198;-70
2022/01/30 04:16:30;;;;;;;11.70;1.90;;;;;;;;;;5029006;28;20625;-70
2022/01/30 04:18:56;;;;;;;7.73;1.77;;;;;;;;;;5026455;28;20186;-70
2022/01/30 04:21:22;;;;;;;11.50;2.40;;;;;;;;;;5011467;28;20196;-70
2022/01/30 04:23:47;;;;;;;12.03;1.90;;;;;;;;;;5028118;28;20289;-70
2022/01/30 04:26:12;;;;;;;12.33;1.97;;;;;;;;;;5030164;28;20271;-70
2022/01/30 04:28:37;;;;;;;10.33;2.60;;;;;;;;;;5030664;28;20190;-70
2022/01/30 04:31:03;;;;;;;11.13;3.37;;;;;;;;;;5025672;28;20205;-70
2022/01/30 04:33:28;;;;;;;6.77;2.50;;;;;;;;;;5028441;28;20221;-70
2022/01/30 04:35:55;;;;;;;11.83;2.53;;;;;;;;;;5013913;28;20202;-70
2022/01/30 04:38:31;;;;;;;11.03;2.13;;;;;;;;;;5011905;28;20235;-70
2022/01/30 04:55:11;;;;;;;7.37;2.37;;;;;;;;;;5027097;28;20698;-70
2022/01/30 05:00:03;;;;;;;9.60;2.70;;;;;;;;;;5029686;28;20562;-70
2022/01/30 05:07:40;;;;;;;12.33;2.47;;;;;;;;;;5030341;28;20235;-69
2022/01/30 05:10:06;;;;;;;12.77;3.03;;;;;;;;;;5028250;28;20845;-69
2022/01/30 05:12:41;;;;;;;10.13;2.57;;;;;;;;;;5030030;28;20190;-70
2022/01/30 05:15:07;;;;;;;22.00;3.70;;;;;;;;;;5027667;28;20224;-70
2022/01/30 05:17:32;;;;;;;14.30;2.53;;;;;;;;;;5029601;28;20183;-70
2022/01/30 05:19:57;;;;;;;12.03;2.73;;;;;;;;;;5009881;28;20541;-70
2022/01/30 05:22:22;;;;;;;13.30;3.17;;;;;;;;;;5029304;28;20764;-70
2022/01/30 05:24:48;;;;;;;13.07;2.97;;;;;;;;;;5028999;28;20719;-70
2022/01/30 05:27:13;;;;;;;12.27;3.40;;;;;;;;;;5029375;28;20273;-70
2022/01/30 05:29:38;;;;;;;16.63;3.90;;;;;;;;;;5029315;28;20236;-69
2022/01/30 05:32:04;;;;;;;15.10;2.87;;;;;;;;;;5029501;28;20605;-70
2022/01/30 05:34:30;;;;;;;14.27;3.97;;;;;;;;;;5027468;28;20197;-70
2022/01/30 05:36:56;;;;;;;12.13;3.00;;;;;;;;;;5029783;28;20179;-70
2022/01/30 05:39:21;;;;;;;14.30;2.73;;;;;;;;;;5028393;28;20558;-71
2022/01/30 05:41:46;;;;;;;22.30;4.73;;;;;;;;;;5011717;28;20637;-70
2022/01/30 05:44:17;;;;;;;15.07;2.87;;;;;;;;;;5028985;28;20210;-71
2022/01/30 05:46:51;;;;;;;16.10;3.60;;;;;;;;;;5030450;28;20695;-70
2022/01/30 05:49:16;;;;;;;12.00;3.47;;;;;;;;;;5029680;28;20179;-70
2022/01/30 05:51:42;;;;;;;12.93;3.20;;;;;;;;;;5033143;28;20257;-70
2022/01/30 05:54:07;;;;;;;18.47;3.97;;;;;;;;;;5011987;28;20201;-70
2022/01/30 05:56:33;;;;;;;13.03;3.90;;;;;;;;;;5030258;28;20179;-70
2022/01/30 05:58:59;;;;;;;16.53;3.87;;;;;;;;;;5032123;28;20190;-70
2022/01/30 06:01:24;;;;;;;17.87;3.60;;;;;;;;;;5029134;28;20182;-70
2022/01/30 06:03:49;;;;;;;11.13;2.60;;;;;;;;;;5029330;28;20703;-70
2022/01/30 06:06:14;;;;;;;23.53;5.10;;;;;;;;;;5032014;28;20277;-71
2022/01/30 06:11:05;;;;;;;19.43;3.83;;;;;;;;;;5028732;28;20182;-70
2022/01/30 06:13:30;;;;;;;19.07;3.50;;;;;;;;;;5014323;28;20707;-70
2022/01/30 06:15:56;;;;;;;20.10;5.53;;;;;;;;;;5032639;28;20212;-70
2022/01/30 06:18:21;;;;;;;15.63;3.57;;;;;;;;;;5032345;28;20670;-70
2022/01/30 06:20:46;;;;;;;16.73;3.13;;;;;;;;;;5031472;28;20606;-70
2022/01/30 06:23:11;;;;;;;20.57;4.30;;;;;;;;;;5031729;28;20763;-70
2022/01/30 06:25:36;;;;;;;17.83;3.60;;;;;;;;;;5030084;28;20209;-70
2022/01/30 06:28:02;;;;;;;19.53;3.97;;;;;;;;;;5030830;28;20260;-70
2022/01/30 06:30:27;;;;;;;16.97;3.63;;;;;;;;;;5032749;28;20261;-70
2022/01/30 06:32:53;;;;;;;17.00;2.87;;;;;;;;;;5031904;28;20190;-70
2022/01/30 06:35:18;;;;;;;20.30;4.83;;;;;;;;;;5031640;28;20186;-70
2022/01/30 06:37:43;;;;;;;22.20;3.87;;;;;;;;;;5032364;28;20553;-70
2022/01/30 06:40:09;;;;;;;16.23;5.47;;;;;;;;;;5030525;28;20441;-70
2022/01/30 06:42:34;;;;;;;14.13;3.90;;;;;;;;;;5032372;28;20217;-70
2022/01/30 06:44:59;;;;;;;19.03;4.27;;;;;;;;;;5030306;28;20201;-70
2022/01/30 06:47:24;;;;;;;17.87;3.70;;;;;;;;;;5031603;28;20269;-71
2022/01/30 06:49:50;;;;;;;24.87;6.13;;;;;;;;;;5030607;28;20547;-70
2022/01/30 06:52:15;;;;;;;19.70;5.07;;;;;;;;;;5030694;28;20200;-70
2022/01/30 06:54:40;;;;;;;17.33;4.77;;;;;;;;;;5029372;28;20178;-70
2022/01/30 06:57:06;;;;;;;16.37;3.40;;;;;;;;;;5031751;28;20167;-70
2022/01/30 06:59:31;;;;;;;17.97;3.90;;;;;;;;;;5030174;28;20622;-70
2022/01/30 07:01:56;;;;;;;16.63;3.33;;;;;;;;;;5029454;28;20186;-70
2022/01/30 07:04:21;;;;;;;22.87;3.70;;;;;;;;;;5054508;22;20225;-68
2022/01/30 07:06:46;;;;;;;21.77;5.73;;;;;;;;;;5045531;28;20202;-67
2022/01/30 07:09:11;;;;;;;19.87;3.80;;;;;;;;;;5049091;28;20182;-69
2022/01/30 07:11:37;;;;;;;25.70;4.97;;;;;;;;;;5045189;28;20623;-68
2022/01/30 07:14:02;;;;;;;23.33;5.10;;;;;;;;;;5049487;28;20609;-68
2022/01/30 07:16:27;;;;;;;23.73;3.80;;;;;;;;;;5048954;28;20197;-69
2022/01/30 07:18:53;;;;;;;15.53;4.17;;;;;;;;;;5031427;28;20185;-68
2022/01/30 07:21:18;;;;;;;19.73;4.47;;;;;;;;;;5050026;28;20283;-68
2022/01/30 07:23:43;;;;;;;19.60;4.07;;;;;;;;;;5048587;28;20205;-68
2022/01/30 07:26:09;;;;;;;23.70;6.47;;;;;;;;;;5050901;28;20315;-68
2022/01/30 07:28:34;;;;;;;18.60;3.40;;;;;;;;;;5048286;28;20180;-69
2022/01/30 07:30:59;;;;;;;24.13;3.97;;;;;;;;;;5051036;28;20608;-68
2022/01/30 07:33:24;;;;;;;19.87;3.73;;;;;;;;;;5047439;28;20197;-67
2022/01/30 07:35:52;;;;;;;18.57;3.97;;;;;;;;;;5048253;28;20280;-68
2022/01/30 07:38:19;;;;;;;26.00;5.53;;;;;;;;;;5030202;28;20216;-68
2022/01/30 07:40:44;;;;;;;23.07;4.37;;;;;;;;;;5048147;28;20189;-69
2022/01/30 07:43:10;;;;;;;17.30;3.90;;;;;;;;;;5049660;28;20229;-69
2022/01/30 07:45:35;;;;;;;21.97;5.27;;;;;;;;;;5048059;28;20224;-69
2022/01/30 07:48:01;;;;;;;17.63;4.43;;;;;;;;;;5048639;28;20504;-68
2022/01/30 07:50:27;;;;;;;20.30;4.60;;;;;;;;;;5049528;28;20212;-68
2022/01/30 07:52:52;;;;;;;16.33;4.80;;;;;;;;;;5047452;28;20205;-68
2022/01/30 07:55:19;;;;;;;31.67;5.60;;;;;;;;;;5047718;28;20677;-68
2022/01/30 07:57:44;;;;;;;22.57;4.47;;;;;;;;;;5049935;28;20205;-68
2022/01/30 08:00:10;;;;;;;15.70;4.63;;;;;;;;;;5046719;28;20267;-68
2022/01/30 08:02:35;;;;;;;21.07;4.93;;;;;;;;;;5047833;28;20186;-68
2022/01/30 08:05:00;;;;;;;20.70;4.93;;;;;;;;;;5048761;28;20590;-68
2022/01/30 08:07:26;;;;;;;19.40;3.57;;;;;;;;;;5064468;28;21341;-68
2022/01/30 08:09:51;;;;;;;24.77;4.90;;;;;;;;;;5056767;28;20170;-68
2022/01/30 08:12:19;;;;;;;16.67;4.33;;;;;;;;;;5047976;28;20594;-68
2022/01/30 08:14:44;;;;;;;20.53;4.33;;;;;;;;;;5044470;28;20675;-68
2022/01/30 08:17:09;;;;;;;19.10;3.77;;;;;;;;;;5045489;28;20267;-68
2022/01/30 08:19:35;;;;;;;19.43;4.53;;;;;;;;;;5046281;28;20169;-69
2022/01/30 08:22:02;;;;;;;13.03;3.40;;;;;;;;;;5025947;28;20617;-69
2022/01/30 08:24:27;;;;;;;16.40;4.37;;;;;;;;;;5046520;28;20643;-68
2022/01/30 08:26:52;;;;;;;21.00;4.23;;;;;;;;;;5049728;28;20197;-69
2022/01/30 08:29:17;;;;;;;15.73;3.57;;;;;;;;;;5049109;28;20178;-69
2022/01/30 08:31:42;;;;;;;26.27;4.90;;;;;;;;;;5031122;28;20177;-68
2022/01/30 08:34:08;;;;;;;18.87;4.50;;;;;;;;;;5048669;28;20194;-68
2022/01/30 08:36:33;;;;;;;15.83;5.17;;;;;;;;;;5048342;28;20549;-69
2022/01/30 08:38:58;;;;;;;19.60;4.43;;;;;;;;;;5048841;28;20681;-68
2022/01/30 08:41:23;;;;;;;38.73;4.20;;;;;;;;;;5046362;28;20177;-69
2022/01/30 08:43:48;;;;;;;21.73;3.90;;;;;;;;;;5049144;28;20224;-69
2022/01/30 08:46:14;;;;;;;17.13;4.20;;;;;;;;;;5046507;28;20272;-69
2022/01/30 08:48:40;;;;;;;13.63;3.70;;;;;;;;;;5049208;28;20264;-69
2022/01/30 08:51:05;;;;;;;26.67;6.33;;;;;;;;;;5047549;28;20676;-69
2022/01/30 08:53:30;;;;;;;18.00;4.30;;;;;;;;;;5049475;28;20596;-69
2022/01/30 08:55:55;;;;;;;28.13;5.73;;;;;;;;;;5049745;28;20185;-69
2022/01/30 08:58:20;;;;;;;22.60;5.20;;;;;;;;;;5046934;28;20666;-69
2022/01/30 09:00:46;;;;;;;28.43;5.07;;;;;;;;;;5046448;28;20220;-69
2022/01/30 09:03:11;;;;;;;17.60;3.97;;;;;;;;;;5045092;28;20233;-69
2022/01/30 09:05:37;;;;;;;20.50;3.90;;;;;;;;;;5047452;28;20571;-69
2022/01/30 09:08:04;;;;;;;18.67;4.83;;;;;;;;;;5047381;28;20181;-69
2022/01/30 09:10:29;;;;;;;21.67;5.03;;;;;;;;;;5031110;28;20190;-70
2022/01/30 09:12:54;;;;;;;22.37;4.97;;;;;;;;;;5049525;28;20205;-68
2022/01/30 09:15:19;;;;;;;21.10;5.17;;;;;;;;;;5047405;28;20277;-69
2022/01/30 09:17:45;;;;;;;17.27;4.07;;;;;;;;;;5049893;28;20174;-69
2022/01/30 09:20:11;;;;;;;23.47;6.20;;;;;;;;;;5046733;28;20174;-69
2022/01/30 09:22:36;;;;;;;22.53;5.17;;;;;;;;;;5049711;28;20181;-69
2022/01/30 09:25:02;;;;;;;25.33;4.73;;;;;;;;;;5030721;28;20703;-69
2022/01/30 09:27:27;;;;;;;33.47;6.40;;;;;;;;;;5052934;28;20226;-69
2022/01/30 09:29:53;;;;;;;20.47;4.33;;;;;;;;;;5054089;28;20659;-70
2022/01/30 09:32:18;;;;;;;18.13;6.57;;;;;;;;;;5053447;28;20173;-69
2022/01/30 09:34:43;;;;;;;21.60;6.07;;;;;;;;;;5053236;28;20201;-69
2022/01/30 09:37:09;;;;;;;20.37;5.03;;;;;;;;;;5054282;28;20647;-70
2022/01/30 09:39:35;;;;;;;22.80;5.60;;;;;;;;;;5019137;28;20178;-69
2022/01/30 09:42:00;;;;;;;22.57;5.73;;;;;;;;;;5053107;28;20176;-68
2022/01/30 09:44:25;;;;;;;20.40;5.17;;;;;;;;;;5051327;28;20331;-70
2022/01/30 09:46:50;;;;;;;21.80;4.73;;;;;;;;;;5051999;28;20205;-70
2022/01/30 09:49:19;;;;;;;21.63;4.97;;;;;;;;;;5033711;28;20673;-70
2022/01/30 09:51:44;;;;;;;24.40;7.23;;;;;;;;;;5049928;28;20181;-69
2022/01/30 09:54:09;;;;;;;24.00;5.27;;;;;;;;;;5050745;28;20204;-69
2022/01/30 09:56:35;;;;;;;24.13;5.70;;;;;;;;;;5052812;28;20170;-69
2022/01/30 09:59:01;;;;;;;19.57;4.67;;;;;;;;;;5048718;28;20190;-69
2022/01/30 10:01:30;;;;;;;16.57;4.43;;;;;;;;;;5051695;28;20205;-69
2022/01/30 10:03:55;;;;;;;18.70;4.77;;;;;;;;;;5051148;28;20240;-68
2022/01/30 10:06:23;;;;;;;19.83;5.33;;;;;;;;;;5052273;28;20270;-69
2022/01/30 10:08:53;;;;;;;22.07;4.73;;;;;;;;;;5052624;28;20212;-69
2022/01/30 10:14:02;;;;;;;20.67;5.30;;;;;;;;;;5052798;28;20208;-69
2022/01/30 10:16:27;;;;;;;25.10;5.40;;;;;;;;;;5051744;28;20292;-69
2022/01/30 10:18:53;;;;;;;20.77;5.17;;;;;;;;;;5046331;28;20182;-68
2022/01/30 10:21:18;;;;;;;18.73;4.60;;;;;;;;;;5034643;28;20189;-68
2022/01/30 10:23:44;;;;;;;18.60;4.50;;;;;;;;;;5049755;28;20205;-69
2022/01/30 10:26:12;;;;;;;26.57;5.23;;;;;;;;;;5038545;28;20687;-69
2022/01/30 10:28:38;;;;;;;17.50;4.40;;;;;;;;;;5045733;28;20174;-68
2022/01/30 10:31:07;;;;;;;20.47;5.13;;;;;;;;;;5047927;28;20650;-69
2022/01/30 10:33:41;;;;;;;20.03;5.13;;;;;;;;;;5043217;28;20243;-69
2022/01/30 10:36:10;;;;;;;20.47;4.93;;;;;;;;;;5037277;28;20190;-69
2022/01/30 10:38:52;;;;;;;16.63;4.93;;;;;;;;;;5045410;28;20182;-69
2022/01/30 10:41:20;;;;;;;19.10;4.60;;;;;;;;;;5027212;28;20219;-70
2022/01/30 10:43:53;;;;;;;19.30;4.40;;;;;;;;;;5049967;28;20697;-70
2022/01/30 10:46:18;;;;;;;19.07;4.93;;;;;;;;;;5050601;28;20254;-69
2022/01/30 10:48:54;;;;;;;41.93;8.83;;;;;;;;;;5049741;28;20177;-70
2022/01/30 10:51:19;;;;;;;17.73;4.23;;;;;;;;;;5049194;28;20426;-70
2022/01/30 10:53:46;;;;;;;18.07;4.63;;;;;;;;;;5046068;28;20213;-69
2022/01/30 10:56:24;;;;;;;19.27;4.67;;;;;;;;;;5051260;28;20583;-70
2022/01/30 10:59:08;;;;;;;21.57;4.60;;;;;;;;;;5047212;28;20326;-68
2022/01/30 11:01:34;;;;;;;20.83;4.93;;;;;;;;;;5055199;28;20169;-70
2022/01/30 11:04:00;;;;;;;16.53;4.83;;;;;;;;;;5061971;28;20206;-67
2022/01/30 11:06:29;;;;;;;18.70;4.37;;;;;;;;;;5034695;28;20420;-67
2022/01/30 11:09:04;;;;;;;21.27;4.40;;;;;;;;;;5050112;28;20183;-70
2022/01/30 11:19:19;;;;;;;17.07;4.20;;;;;;;;;;5048860;28;20308;-68
2022/01/30 11:21:49;;;;;;;24.57;4.40;;;;;;;;;;5029788;28;20610;-70
2022/01/30 11:24:15;;;;;;;19.67;4.60;;;;;;;;;;5050748;28;20212;-70
2022/01/30 11:26:42;;;;;;;21.10;5.43;;;;;;;;;;5049268;28;20658;-70
2022/01/30 11:29:08;;;;;;;22.63;7.37;;;;;;;;;;5042221;28;20185;-70
2022/01/30 11:31:34;;;;;;;22.70;6.33;;;;;;;;;;5049801;28;20196;-70
2022/01/30 11:33:59;;;;;;;24.30;6.40;;;;;;;;;;5054592;28;20680;-69
2022/01/30 11:36:25;;;;;;;22.43;5.03;;;;;;;;;;5049773;28;20694;-70
2022/01/30 11:38:50;;;;;;;15.03;4.40;;;;;;;;;;5051769;28;20181;-69
2022/01/30 11:41:17;;;;;;;22.97;6.63;;;;;;;;;;5048231;28;20174;-68
2022/01/30 11:44:01;;;;;;;20.77;7.33;;;;;;;;;;5052510;28;20193;-68
2022/01/30 11:46:27;;;;;;;20.53;6.57;;;;;;;;;;5048317;28;20210;-68
2022/01/30 11:49:28;;;;;;;18.03;4.67;;;;;;;;;;5028333;28;20565;-68
2022/01/30 11:51:54;;;;;;;26.93;6.07;;;;;;;;;;4986401;28;20211;-68
2022/01/30 11:54:32;;;;;;;19.93;5.67;;;;;;;;;;5031232;28;20361;-68
2022/01/30 11:56:57;;;;;;;23.53;6.57;;;;;;;;;;5031761;28;20181;-68
2022/01/30 11:59:38;;;;;;;27.00;6.50;;;;;;;;;;5049385;28;20188;-68
2022/01/30 12:02:22;;;;;;;20.77;6.57;;;;;;;;;;5049302;28;20290;-68
2022/01/30 12:05:01;;;;;;;26.07;6.57;;;;;;;;;;5050164;28;20221;-68
2022/01/30 12:07:33;;;;;;;20.67;4.43;;;;;;;;;;5031178;28;20220;-68
2022/01/30 12:10:17;;;;;;;18.13;4.67;;;;;;;;;;5048680;28;20186;-68
2022/01/30 12:12:55;;;;;;;33.93;7.13;;;;;;;;;;5049978;28;20177;-67
2022/01/30 12:15:52;;;;;;;23.77;5.37;;;;;;;;;;5027938;28;20193;-67
2022/01/30 12:18:36;;;;;;;21.27;4.73;;;;;;;;;;5013173;28;20213;-68
2022/01/30 12:21:01;;;;;;;25.23;6.20;;;;;;;;;;5048205;28;20177;-68
2022/01/30 12:23:30;;;;;;;18.67;6.73;;;;;;;;;;5047395;28;20197;-67
2022/01/30 12:26:03;;;;;;;24.93;5.67;;;;;;;;;;5047682;28;20685;-69
2022/01/30 12:28:43;;;;;;;16.03;4.93;;;;;;;;;;5025213;28;20189;-68
2022/01/30 12:31:24;;;;;;;22.13;5.13;;;;;;;;;;5034282;28;20186;-68
2022/01/30 12:33:57;;;;;;;15.17;3.60;;;;;;;;;;5046354;28;20205;-68
2022/01/30 12:36:22;;;;;;;23.00;5.13;;;;;;;;;;5048425;28;20189;-68
2022/01/30 12:38:51;;;;;;;21.10;5.43;;;;;;;;;;5051509;28;20204;-68
2022/01/30 12:41:18;;;;;;;15.57;4.70;;;;;;;;;;5047131;28;20277;-68
2022/01/30 12:43:43;;;;;;;23.03;4.63;;;;;;;;;;5042865;28;20202;-67
2022/01/30 12:46:09;;;;;;;27.93;5.77;;;;;;;;;;5047022;28;20208;-67
2022/01/30 12:48:35;;;;;;;17.47;4.87;;;;;;;;;;5050355;28;20630;-68
2022/01/30 12:51:04;;;;;;;24.60;4.63;;;;;;;;;;5047138;28;20227;-67
2022/01/30 12:53:35;;;;;;;25.17;5.20;;;;;;;;;;5048655;28;20584;-67
2022/01/30 12:56:00;;;;;;;21.30;5.90;;;;;;;;;;5046992;28;20193;-67
2022/01/30 12:58:35;;;;;;;18.70;5.80;;;;;;;;;;5049565;28;20291;-68
2022/01/30 13:01:11;;;;;;;22.63;5.67;;;;;;;;;;5051028;28;20187;-67
2022/01/30 13:03:36;;;;;;;23.77;5.00;;;;;;;;;;5051153;28;20243;-68
2022/01/30 13:06:02;;;;;;;24.57;5.67;;;;;;;;;;5052986;28;20232;-67
2022/01/30 13:08:47;;;;;;;17.93;5.50;;;;;;;;;;5052861;28;20269;-68
2022/01/30 13:11:16;;;;;;;20.97;5.27;;;;;;;;;;5052677;28;20188;-67
2022/01/30 13:14:02;;;;;;;26.77;4.83;;;;;;;;;;5034264;28;20194;-70
2022/01/30 13:16:29;;;;;;;19.37;5.50;;;;;;;;;;5050897;28;20196;-68
2022/01/30 13:18:54;;;;;;;20.27;4.73;;;;;;;;;;5049243;28;20280;-68
2022/01/30 13:21:28;;;;;;;16.20;4.27;;;;;;;;;;5052754;28;20331;-68
2022/01/30 13:23:53;;;;;;;23.63;5.37;;;;;;;;;;5051939;28;20201;-66
2022/01/30 13:26:28;;;;;;;19.40;5.27;;;;;;;;;;5051382;28;20208;-69
2022/01/30 13:28:54;;;;;;;19.80;5.43;;;;;;;;;;5046392;28;20598;-69
2022/01/30 13:31:19;;;;;;;19.20;5.37;;;;;;;;;;5045006;28;20461;-68
2022/01/30 13:33:44;;;;;;;23.77;4.90;;;;;;;;;;5028397;28;20210;-68
2022/01/30 13:36:21;;;;;;;18.23;4.50;;;;;;;;;;5051632;28;20308;-69
2022/01/30 13:38:46;;;;;;;17.30;5.03;;;;;;;;;;5046868;28;20238;-68
2022/01/30 13:41:24;;;;;;;19.30;5.53;;;;;;;;;;5051171;28;20170;-69
2022/01/30 13:43:58;;;;;;;22.27;5.83;;;;;;;;;;5051762;28;20569;-68
2022/01/30 13:49:10;;;;;;;28.93;6.30;;;;;;;;;;5050952;28;20747;-68
2022/01/30 13:51:35;;;;;;;35.57;5.97;;;;;;;;;;5058736;28;20379;-68
2022/01/30 13:54:10;;;;;;;19.10;5.33;;;;;;;;;;5063101;28;20193;-68
2022/01/30 13:56:36;;;;;;;21.27;5.27;;;;;;;;;;5061436;28;20181;-68
2022/01/30 13:59:01;;;;;;;22.23;4.37;;;;;;;;;;5061210;28;20235;-68
2022/01/30 14:01:30;;;;;;;25.07;5.90;;;;;;;;;;5056956;28;20197;-68
2022/01/30 14:04:09;;;;;;;22.23;4.87;;;;;;;;;;5034462;28;20244;-68
2022/01/30 14:06:35;;;;;;;19.80;4.73;;;;;;;;;;5052054;28;20224;-67
2022/01/30 14:09:02;;;;;;;17.10;4.87;;;;;;;;;;5052533;28;20232;-67
2022/01/30 14:11:38;;;;;;;27.60;6.77;;;;;;;;;;5052508;28;20185;-68
2022/01/30 14:14:23;;;;;;;22.83;5.23;;;;;;;;;;5053211;28;20196;-68
2022/01/30 14:16:51;;;;;;;19.03;5.17;;;;;;;;;;5036338;28;20533;-68
2022/01/30 14:19:19;;;;;;;20.43;4.93;;;;;;;;;;5052511;28;20238;-67
2022/01/30 14:21:44;;;;;;;27.03;6.40;;;;;;;;;;5049219;28;20688;-68
2022/01/30 14:24:20;;;;;;;26.53;10.47;;;;;;;;;;5036355;28;20201;-68
2022/01/30 14:26:45;;;;;;;26.73;11.77;;;;;;;;;;5032231;28;20197;-67
2022/01/30 14:29:16;;;;;;;26.20;6.83;;;;;;;;;;5046789;28;20170;-67
2022/01/30 14:32:07;;;;;;;23.10;8.20;;;;;;;;;;5047776;28;20204;-68
2022/01/30 14:34:33;;;;;;;21.37;5.63;;;;;;;;;;5039793;28;20296;-68
2022/01/30 14:37:00;;;;;;;18.90;6.30;;;;;;;;;;5048174;28;20588;-68
2022/01/30 14:39:26;;;;;;;22.30;6.33;;;;;;;;;;5051299;28;20537;-68
2022/01/30 14:41:51;;;;;;;19.43;6.07;;;;;;;;;;5047012;28;20235;-68
2022/01/30 14:44:19;;;;;;;22.93;6.20;;;;;;;;;;5045928;28;20674;-67
2022/01/30 14:46:44;;;;;;;24.93;7.37;;;;;;;;;;5035531;28;20287;-67
2022/01/30 14:49:09;;;;;;;23.27;6.17;;;;;;;;;;5043964;28;20193;-68
2022/01/30 14:51:35;;;;;;;24.23;5.30;;;;;;;;;;5050939;28;20610;-68
2022/01/30 14:54:00;;;;;;;21.53;5.70;;;;;;;;;;5031697;28;20209;-68
2022/01/30 14:56:25;;;;;;;24.73;6.50;;;;;;;;;;5051439;28;20182;-68
2022/01/30 14:58:50;;;;;;;19.67;5.43;;;;;;;;;;5052533;28;20184;-68
2022/01/30 15:01:15;;;;;;;29.53;13.17;;;;;;;;;;5051511;28;20189;-68
2022/01/30 15:03:41;;;;;;;26.13;7.43;;;;;;;;;;5051093;28;20221;-68
2022/01/30 15:06:06;;;;;;;17.13;8.07;;;;;;;;;;5032923;28;20706;-67
2022/01/30 15:08:31;;;;;;;30.93;9.77;;;;;;;;;;5034186;28;20430;-68
2022/01/30 15:10:56;;;;;;;25.27;6.27;;;;;;;;;;5050717;28;20178;-68
2022/01/30 15:13:23;;;;;;;23.17;5.47;;;;;;;;;;5052011;28;20702;-68
2022/01/30 15:15:50;;;;;;;15.97;4.87;;;;;;;;;;5050398;28;20260;-68
2022/01/30 15:18:23;;;;;;;21.10;6.03;;;;;;;;;;5048401;28;20180;-68
2022/01/30 15:20:48;;;;;;;22.80;6.23;;;;;;;;;;5047560;28;20239;-68
2022/01/30 15:23:14;;;;;;;19.83;6.13;;;;;;;;;;5054330;28;20617;-68
2022/01/30 15:25:39;;;;;;;23.87;4.70;;;;;;;;;;5051380;28;20288;-68
2022/01/30 15:28:04;;;;;;;15.00;4.80;;;;;;;;;;5054651;28;20170;-68
2022/01/30 15:30:29;;;;;;;13.97;5.10;;;;;;;;;;5051390;28;20181;-68
2022/01/30 15:32:55;;;;;;;20.80;4.50;;;;;;;;;;5050707;28;20212;-68
2022/01/30 15:35:20;;;;;;;16.17;5.17;;;;;;;;;;5049817;28;20182;-68
2022/01/30 15:37:45;;;;;;;24.53;5.20;;;;;;;;;;5052196;28;20176;-68
2022/01/30 15:40:12;;;;;;;15.67;5.07;;;;;;;;;;5031780;28;20731;-68
2022/01/30 15:42:38;;;;;;;20.30;6.00;;;;;;;;;;5051906;28;20181;-68